METAR AND TAF INFORMATION
METAR FOR OTHH
ADDS - METARS form results

(0823 UTC 26 January 2020)
Data provider http://aviationweather.gov/metar/data/
 
METAR text: OTHH 260800Z 30018KT 9000 NSC 15/03 Q1023 NOSIG
Conditions at: OTHH (DOHA HAMAD INTL , QA) observed 0800 UTC 26 January 2020
Temperature: 15.0°C (59°F)
Dewpoint: 3.0°C (37°F) [RH = 44%]
Pressure (altimeter): 30.21 inches Hg (1023.0 mb)
Winds: from the WNW (300 degrees) at 21 MPH (18 knots; 9.3 m/s)
Visibility: 6 miles ( 9 km)
Ceiling: at least 12,000 feet AGL
Clouds: sky clear below 12,000 feet AGL
Weather: no significant weather observed at this time

Forecast for: OTHH (DOHA HAMAD INTL , QA)
Text: TAF OTHH 260500Z 2606/2712 31020G30KT 6000 NSC
Forecast period: 0600 UTC 26 January 2020 to 1200 UTC 27 January 2020
Forecast type: FROM: standard forecast or significant change
Winds: from the NW (310 degrees) at 23 MPH (20 knots; 10.3 m/s)
gusting to 34 MPH (30 knots; 15.4 m/s)
Visibility: 4 miles (6 km)
Ceiling: unknown
Clouds: missing
Weather: no significant weather forecast for this period
Text: TEMPO 2607/2615 4000 BLDU
Forecast period: 0700 to 1500 UTC 26 January 2020
Forecast type: TEMPORARY: The following changes expected for less than half the time period
Visibility: 2.49 miles (4.01 km)
Ceiling: unknown
Clouds: missing
Weather: BLDU  (blowing dust)

 AIRPORT MAP

 RUNWAY INFORMATION

 AIRPORT FREQUENCIES

 AIRPORT NEAR NAVIGATION AIDS



2018 Air Astana Virtual Airline